createdAt,value
2018-04-09T00:00:43.653Z,7.63
2018-04-09T00:03:11.105Z,6.60
2018-04-09T00:05:38.561Z,9.00
2018-04-09T00:08:06.045Z,6.83
2018-04-09T00:10:33.488Z,8.53
2018-04-09T00:13:01.281Z,8.60
2018-04-09T00:15:28.734Z,8.00
2018-04-09T00:17:56.176Z,8.30
2018-04-09T00:20:23.650Z,7.57
2018-04-09T00:22:51.085Z,8.47
2018-04-09T00:25:18.879Z,8.50
2018-04-09T00:27:46.357Z,7.50
2018-04-09T00:30:13.817Z,7.47
2018-04-09T00:32:41.277Z,7.17
2018-04-09T00:35:08.716Z,9.27
2018-04-09T00:37:36.297Z,7.30
2018-04-09T00:40:03.749Z,8.33
2018-04-09T00:42:31.185Z,7.10
2018-04-09T00:44:58.650Z,9.77
2018-04-09T00:47:26.104Z,8.27
2018-04-09T00:49:53.828Z,8.40
2018-04-09T00:52:21.261Z,7.93
2018-04-09T00:54:48.706Z,8.10
2018-04-09T00:57:16.168Z,7.03
2018-04-09T00:59:43.609Z,7.00
2018-04-09T01:02:11.270Z,9.00
2018-04-09T01:04:38.714Z,7.47
2018-04-09T01:07:06.156Z,6.33
2018-04-09T01:09:33.633Z,6.57
2018-04-09T01:12:01.069Z,7.50
2018-04-09T01:14:28.733Z,8.33
2018-04-09T01:16:56.217Z,6.87
2018-04-09T01:19:23.653Z,8.30
2018-04-09T01:21:51.117Z,7.77
2018-04-09T01:24:18.557Z,8.40
2018-04-09T01:26:46.188Z,8.30
2018-04-09T01:29:13.629Z,7.00
2018-04-09T01:31:41.066Z,7.53
2018-04-09T01:34:08.617Z,7.60
2018-04-09T01:36:36.095Z,8.33
2018-04-09T01:39:03.777Z,6.77
2018-04-09T01:41:31.226Z,7.40
2018-04-09T01:43:58.673Z,7.17
2018-04-09T01:46:26.136Z,7.47
2018-04-09T01:48:53.573Z,7.83
2018-04-09T01:51:21.173Z,7.53
2018-04-09T01:53:48.661Z,7.47
2018-04-09T01:56:16.113Z,8.00
2018-04-09T01:58:43.585Z,7.63
2018-04-09T02:01:11.020Z,7.63
2018-04-09T02:03:38.620Z,7.03
2018-04-09T02:06:06.058Z,7.63
2018-04-09T02:08:33.529Z,8.80
2018-04-09T02:11:00.987Z,7.10
2018-04-09T02:13:28.473Z,7.77
2018-04-09T02:15:56.174Z,8.17
2018-04-09T02:18:23.630Z,8.20
2018-04-09T02:20:51.209Z,6.63
2018-04-09T02:23:18.689Z,7.90
2018-04-09T02:25:46.130Z,7.57
2018-04-09T02:28:13.777Z,7.37
2018-04-09T02:30:41.216Z,7.60
2018-04-09T02:33:08.668Z,7.90
2018-04-09T02:35:36.132Z,7.13
2018-04-09T02:38:03.569Z,7.50
2018-04-09T02:40:31.261Z,6.87
2018-04-09T02:42:58.726Z,6.60
2018-04-09T02:45:26.161Z,6.27
2018-04-09T02:47:53.629Z,7.07
2018-04-09T02:50:21.065Z,7.10
2018-04-09T02:52:48.527Z,6.60
2018-04-09T02:55:15.994Z,7.73
2018-04-09T02:57:43.450Z,7.33
2018-04-09T03:00:10.999Z,6.83
2018-04-09T03:02:38.441Z,7.67
2018-04-09T03:05:05.918Z,7.47
2018-04-09T03:07:33.386Z,7.67
2018-04-09T03:10:00.826Z,7.17
2018-04-09T03:12:28.291Z,7.00
2018-04-09T03:14:55.735Z,7.43
2018-04-09T03:17:23.393Z,7.30
2018-04-09T03:19:50.825Z,8.03
2018-04-09T03:22:18.274Z,8.53
2018-04-09T03:24:45.737Z,8.20
2018-04-09T03:27:13.189Z,7.80
2018-04-09T03:29:40.825Z,7.63
2018-04-09T03:32:08.273Z,8.53
2018-04-09T03:34:35.730Z,7.87
2018-04-09T03:37:03.191Z,7.70
2018-04-09T03:39:30.629Z,6.67
2018-04-09T03:41:58.104Z,8.30
2018-04-09T03:44:25.596Z,7.10
2018-04-09T03:46:53.041Z,7.80
2018-04-09T03:49:20.521Z,7.50
2018-04-09T03:51:47.966Z,6.97
2018-04-09T03:54:15.586Z,8.13
2018-04-09T03:56:43.025Z,7.60
2018-04-09T03:59:10.458Z,7.73
2018-04-09T04:01:38.045Z,7.00
2018-04-09T04:04:05.481Z,7.30
2018-04-09T04:06:33.171Z,7.70
2018-04-09T04:09:00.634Z,7.90
2018-04-09T04:11:28.073Z,7.87
2018-04-09T04:13:55.547Z,8.13
2018-04-09T04:16:34.798Z,7.13
2018-04-09T04:19:14.146Z,6.93
2018-04-09T04:21:46.291Z,7.20
2018-04-09T04:24:13.747Z,8.20
2018-04-09T04:26:41.208Z,9.03
2018-04-09T04:29:08.695Z,7.00
2018-04-09T04:31:36.152Z,7.83
2018-04-09T04:34:03.624Z,9.10
2018-04-09T04:36:31.118Z,8.10
2018-04-09T04:38:58.563Z,9.40
2018-04-09T04:41:26.136Z,9.03
2018-04-09T04:43:53.590Z,8.30
2018-04-09T04:46:21.044Z,8.07
2018-04-09T04:48:48.504Z,7.83
2018-04-09T04:51:15.953Z,7.60
2018-04-09T04:53:43.435Z,8.10
2018-04-09T04:56:10.873Z,9.00
2018-04-09T04:58:38.337Z,8.90
2018-04-09T05:01:05.829Z,7.53
2018-04-09T05:03:33.270Z,8.90
2018-04-09T05:06:00.873Z,8.23
2018-04-09T05:08:28.313Z,9.60
2018-04-09T05:10:55.763Z,8.87
2018-04-09T05:13:23.237Z,9.70
2018-04-09T05:15:50.681Z,8.63
2018-04-09T05:18:18.184Z,9.57
2018-04-09T05:20:45.621Z,8.97
2018-04-09T05:23:13.065Z,9.20
2018-04-09T05:25:40.534Z,9.20
2018-04-09T05:28:07.985Z,8.07
2018-04-09T05:30:35.581Z,8.30
2018-04-09T05:33:03.045Z,9.83
2018-04-09T05:35:30.493Z,9.23
2018-04-09T05:37:57.949Z,8.93
2018-04-09T05:40:25.392Z,9.47
2018-04-09T05:42:52.853Z,9.27
2018-04-09T05:45:20.314Z,9.03
2018-04-09T05:47:47.762Z,9.83
2018-04-09T05:50:15.221Z,8.80
2018-04-09T05:52:42.657Z,9.50
2018-04-09T05:55:10.378Z,9.40
2018-04-09T05:57:37.846Z,9.50
2018-04-09T06:00:05.298Z,10.37
2018-04-09T06:02:33.432Z,8.90
2018-04-09T06:05:00.877Z,9.80
2018-04-09T06:07:28.382Z,9.37
2018-04-09T06:09:55.821Z,9.17
2018-04-09T06:12:23.265Z,9.13
2018-04-09T06:14:50.737Z,8.20
2018-04-09T06:17:18.181Z,9.63
2018-04-09T06:19:45.887Z,8.97
2018-04-09T06:22:13.342Z,8.47
2018-04-09T06:24:40.781Z,9.23
2018-04-09T06:27:08.250Z,9.70
2018-04-09T06:29:35.688Z,8.97
2018-04-09T06:32:03.337Z,10.23
2018-04-09T06:34:30.778Z,10.70
2018-04-09T06:36:58.221Z,10.50
2018-04-09T06:39:25.709Z,10.43
2018-04-09T06:41:53.237Z,10.80
2018-04-09T06:44:20.989Z,10.30
2018-04-09T06:46:48.467Z,10.30
2018-04-09T06:49:15.929Z,10.17
2018-04-09T06:51:43.400Z,10.87
2018-04-09T06:54:10.884Z,10.87
2018-04-09T06:56:38.653Z,11.53
2018-04-09T06:59:06.111Z,11.53
2018-04-09T07:01:33.562Z,10.70
2018-04-09T07:04:01.154Z,10.47
2018-04-09T07:06:28.624Z,10.83
2018-04-09T07:08:56.418Z,10.63
2018-04-09T07:11:23.873Z,10.80
2018-04-09T07:13:51.413Z,11.13
2018-04-09T07:16:18.878Z,10.90
2018-04-09T07:18:46.345Z,11.23
2018-04-09T07:21:13.962Z,10.40
2018-04-09T07:23:41.437Z,10.20
2018-04-09T07:26:08.909Z,12.00
2018-04-09T07:28:36.414Z,11.60
2018-04-09T07:31:03.883Z,11.30
2018-04-09T07:33:31.491Z,12.30
2018-04-09T07:35:58.989Z,12.03
2018-04-09T07:38:26.471Z,12.77
2018-04-09T07:40:53.965Z,11.33
2018-04-09T07:43:21.422Z,13.00
2018-04-09T07:45:49.085Z,11.17
2018-04-09T07:48:16.536Z,12.27
2018-04-09T07:50:43.993Z,12.13
2018-04-09T07:53:11.510Z,12.17
2018-04-09T07:55:38.960Z,11.63
2018-04-09T07:58:06.621Z,12.63
2018-04-09T08:00:34.107Z,13.13
2018-04-09T08:03:01.578Z,10.50
2018-04-09T08:05:29.091Z,12.30
2018-04-09T08:07:56.557Z,11.30
2018-04-09T08:10:24.272Z,12.13
2018-04-09T08:12:51.783Z,11.97
2018-04-09T08:15:19.236Z,11.83
2018-04-09T08:17:46.706Z,11.80
2018-04-09T08:20:14.173Z,12.50
2018-04-09T08:22:41.747Z,12.30
2018-04-09T08:25:09.205Z,11.80
2018-04-09T08:27:36.652Z,10.50
2018-04-09T08:30:04.122Z,11.57
2018-04-09T08:32:31.591Z,12.10
2018-04-09T08:34:59.288Z,11.93
2018-04-09T08:37:26.755Z,12.23
2018-04-09T08:39:54.197Z,9.87
2018-04-09T08:42:21.733Z,10.07
2018-04-09T08:44:49.173Z,8.17
2018-04-09T08:47:16.652Z,9.40
2018-04-09T08:49:44.101Z,8.37
2018-04-09T08:52:11.549Z,7.70
2018-04-09T08:54:39.025Z,9.07
2018-04-09T08:57:06.541Z,8.50
2018-04-09T08:59:34.177Z,9.57
2018-04-09T09:02:01.622Z,7.27
2018-04-09T09:04:29.066Z,8.23
2018-04-09T09:06:56.530Z,7.90
2018-04-09T09:09:23.982Z,8.47
2018-04-09T09:11:51.453Z,8.30
2018-04-09T09:14:19.025Z,8.77
2018-04-09T09:16:46.828Z,8.00
2018-04-09T09:19:14.294Z,8.97
2018-04-09T09:21:41.732Z,7.70
2018-04-09T09:24:09.385Z,8.40
2018-04-09T09:26:36.837Z,8.77
2018-04-09T09:29:04.285Z,8.47
2018-04-09T09:31:31.753Z,8.53
2018-04-09T09:33:59.229Z,9.20
2018-04-09T09:36:26.841Z,8.50
2018-04-09T09:38:54.286Z,8.73
2018-04-09T09:41:21.744Z,7.30
2018-04-09T09:43:49.209Z,8.73
2018-04-09T09:46:16.666Z,7.83
2018-04-09T09:48:44.145Z,8.20
2018-04-09T09:51:11.636Z,8.50
2018-04-09T09:53:39.077Z,8.97
2018-04-09T09:56:06.560Z,8.40
2018-04-09T09:58:34.001Z,8.60
2018-04-09T10:01:01.484Z,8.57
2018-04-09T10:03:28.973Z,8.83
2018-04-09T10:05:58.926Z,8.60
2018-04-09T10:08:26.397Z,8.80
2018-04-09T10:10:53.848Z,7.87
2018-04-09T10:13:21.564Z,9.23
2018-04-09T10:15:49.019Z,7.80
2018-04-09T10:18:16.466Z,8.30
2018-04-09T10:20:43.925Z,7.43
2018-04-09T10:23:11.365Z,7.40
2018-04-09T10:25:39.021Z,7.17
2018-04-09T10:28:06.457Z,7.00
2018-04-09T10:30:34.037Z,7.57
2018-04-09T10:33:01.557Z,7.43
2018-04-09T10:35:28.996Z,6.60
2018-04-09T10:37:56.712Z,7.67
2018-04-09T10:40:24.289Z,7.33
2018-04-09T10:42:51.757Z,7.33
2018-04-09T10:45:19.221Z,7.07
2018-04-09T10:47:46.661Z,6.97
2018-04-09T10:50:14.141Z,7.80
2018-04-09T10:52:41.597Z,8.43
2018-04-09T10:55:09.087Z,6.33
2018-04-09T10:57:36.660Z,7.60
2018-04-09T11:00:04.746Z,7.63
2018-04-09T11:02:32.802Z,7.93
2018-04-09T11:05:00.248Z,9.10
2018-04-09T11:07:27.714Z,7.70
2018-04-09T11:09:55.203Z,8.00
2018-04-09T11:12:22.679Z,8.17
2018-04-09T11:14:50.250Z,8.13
2018-04-09T11:17:17.694Z,9.47
2018-04-09T11:19:45.161Z,8.47
2018-04-09T11:22:12.697Z,9.73
2018-04-09T11:24:40.318Z,9.47
2018-04-09T11:27:08.736Z,7.53
2018-04-09T11:29:36.182Z,9.13
2018-04-09T11:32:03.745Z,8.97
2018-04-09T11:34:31.246Z,8.10
2018-04-09T11:36:58.691Z,8.80
2018-04-09T11:39:26.358Z,8.43
2018-04-09T11:41:53.814Z,10.03
2018-04-09T11:44:21.292Z,9.10
2018-04-09T11:46:48.915Z,8.47
2018-04-09T11:49:16.356Z,8.23
2018-04-09T11:51:44.019Z,8.37
2018-04-09T11:54:11.459Z,8.87
2018-04-09T11:56:38.904Z,9.17
2018-04-09T11:59:06.376Z,8.07
2018-04-09T12:01:33.819Z,8.10
2018-04-09T12:04:01.466Z,9.07
2018-04-09T12:06:28.919Z,7.57
2018-04-09T12:08:56.375Z,9.50
2018-04-09T12:11:23.868Z,9.40
2018-04-09T12:13:51.335Z,9.63
2018-04-09T12:16:19.014Z,8.43
2018-04-09T12:18:46.510Z,8.40
2018-04-09T12:21:13.958Z,8.93
2018-04-09T12:23:41.422Z,9.67
2018-04-09T12:26:08.891Z,9.43
2018-04-09T12:28:36.481Z,9.47
2018-04-09T12:31:03.937Z,10.37
2018-04-09T12:33:31.396Z,9.60
2018-04-09T12:35:58.880Z,11.87
2018-04-09T12:38:26.355Z,9.20
2018-04-09T12:40:54.162Z,9.87
2018-04-09T12:43:21.645Z,9.40
2018-04-09T12:45:49.159Z,8.90
2018-04-09T12:48:17.315Z,9.00
2018-04-09T12:50:46.604Z,9.57
2018-04-09T12:53:14.774Z,8.73
2018-04-09T12:55:42.255Z,10.07
2018-04-09T12:58:09.718Z,10.20
2018-04-09T13:00:37.224Z,10.00
2018-04-09T13:03:04.671Z,9.27
2018-04-09T13:05:32.406Z,9.03
2018-04-09T13:08:00.210Z,10.27
2018-04-09T13:10:27.711Z,9.00
2018-04-09T13:12:55.181Z,8.77
2018-04-09T13:15:22.638Z,9.37
2018-04-09T13:17:50.131Z,9.53
2018-04-09T13:20:17.600Z,8.50
2018-04-09T13:22:45.064Z,10.60
2018-04-09T13:25:12.535Z,9.40
2018-04-09T13:27:39.984Z,10.00
2018-04-09T13:30:07.461Z,10.77
2018-04-09T13:32:35.010Z,10.20
2018-04-09T13:35:02.462Z,10.50
2018-04-09T13:37:29.898Z,8.40
2018-04-09T13:39:57.372Z,10.47
2018-04-09T13:42:24.828Z,10.07
2018-04-09T13:44:52.266Z,8.97
2018-04-09T13:47:19.901Z,9.17
2018-04-09T13:49:47.360Z,9.40
2018-04-09T13:52:14.827Z,9.60
2018-04-09T13:54:42.311Z,10.00
2018-04-09T13:57:09.759Z,10.73
2018-04-09T13:59:37.215Z,10.07
2018-04-09T14:02:04.932Z,9.10
2018-04-09T14:04:32.387Z,9.57
2018-04-09T14:06:59.831Z,9.00
2018-04-09T14:09:27.335Z,8.60
2018-04-09T14:11:54.984Z,9.77
2018-04-09T14:14:22.708Z,10.10
2018-04-09T14:16:50.171Z,10.80
2018-04-09T14:19:17.619Z,9.67
2018-04-09T14:21:45.104Z,8.40
2018-04-09T14:24:12.563Z,10.40
2018-04-09T14:26:40.043Z,9.80
2018-04-09T14:29:07.547Z,10.60
2018-04-09T14:31:34.995Z,11.30
2018-04-09T14:34:02.500Z,11.60
2018-04-09T14:36:29.986Z,10.23
2018-04-09T14:38:57.465Z,10.33
2018-04-09T14:41:24.927Z,10.10
2018-04-09T14:43:52.379Z,10.47
2018-04-09T14:46:19.849Z,10.30
2018-04-09T14:48:47.308Z,11.80
2018-04-09T14:51:15.095Z,11.30
2018-04-09T14:53:42.579Z,11.83
2018-04-09T14:56:10.052Z,11.43
2018-04-09T14:58:37.521Z,10.20
2018-04-09T15:01:05.004Z,10.60
2018-04-09T15:03:32.710Z,9.97
2018-04-09T15:06:00.188Z,11.90
2018-04-09T15:08:27.671Z,11.57
2018-04-09T15:10:55.351Z,11.37
2018-04-09T15:13:22.854Z,11.87
2018-04-09T15:15:50.420Z,12.50
2018-04-09T15:18:17.890Z,10.00
2018-04-09T15:20:45.350Z,11.47
2018-04-09T15:23:12.820Z,10.77
2018-04-09T15:25:40.289Z,12.13
2018-04-09T15:28:07.900Z,11.40
2018-04-09T15:30:35.444Z,12.97
2018-04-09T15:33:04.377Z,13.07
2018-04-09T15:35:31.898Z,12.50
2018-04-09T15:37:59.371Z,14.20
2018-04-09T15:40:26.984Z,13.00
2018-04-09T15:42:54.460Z,11.50
2018-04-09T15:45:21.929Z,13.60
2018-04-09T15:47:49.417Z,13.00
2018-04-09T15:50:16.932Z,14.57
2018-04-09T15:52:44.575Z,12.13
2018-04-09T15:55:12.037Z,13.10
2018-04-09T15:57:39.495Z,13.00
2018-04-09T16:00:06.991Z,11.60
2018-04-09T16:02:34.435Z,12.00
2018-04-09T16:05:02.103Z,10.40
2018-04-09T16:07:39.560Z,10.67
2018-04-09T16:10:07.180Z,9.83
2018-04-09T16:12:34.641Z,9.90
2018-04-09T16:15:02.095Z,9.63
2018-04-09T16:17:29.623Z,10.23
2018-04-09T16:19:57.079Z,12.33
2018-04-09T16:22:24.560Z,10.63
2018-04-09T16:24:52.040Z,9.17
2018-04-09T16:27:19.532Z,10.33
2018-04-09T16:29:46.994Z,8.90
2018-04-09T16:32:14.452Z,10.27
2018-04-09T16:34:41.933Z,8.33
2018-04-09T16:37:09.377Z,7.90
2018-04-09T16:39:37.083Z,6.77
2018-04-09T16:42:04.542Z,7.53
2018-04-09T16:44:31.987Z,6.90
2018-04-09T16:46:59.479Z,5.90
2018-04-09T16:49:26.933Z,7.63
2018-04-09T16:51:54.407Z,6.47
2018-04-09T16:54:21.895Z,5.80
2018-04-09T16:56:49.350Z,6.77
2018-04-09T16:59:16.832Z,8.33
2018-04-09T17:01:44.285Z,6.60
2018-04-09T17:04:11.768Z,6.90
2018-04-09T17:06:39.327Z,6.10
2018-04-09T17:09:06.917Z,5.70
2018-04-09T17:11:34.443Z,5.07
2018-04-09T17:14:01.928Z,6.30
2018-04-09T17:16:29.709Z,5.00
2018-04-09T17:18:57.170Z,5.03
2018-04-09T17:21:24.669Z,5.53
2018-04-09T17:23:52.140Z,6.00
2018-04-09T17:26:19.596Z,5.33
2018-04-09T17:28:47.486Z,6.07
2018-04-09T17:31:14.963Z,6.00
2018-04-09T17:33:42.451Z,5.60
2018-04-09T17:36:09.912Z,7.10
2018-04-09T17:38:37.369Z,6.57
2018-04-09T17:41:04.859Z,5.80
2018-04-09T17:43:32.327Z,5.37
2018-04-09T17:45:59.804Z,6.43
2018-04-09T17:48:27.304Z,6.90
2018-04-09T17:50:54.749Z,5.77
2018-04-09T17:53:22.339Z,7.40
2018-04-09T17:55:49.786Z,6.33
2018-04-09T17:58:17.257Z,6.47
2018-04-09T18:00:44.759Z,8.77
2018-04-09T18:03:12.243Z,6.50
2018-04-09T18:05:39.899Z,6.40
2018-04-09T18:08:07.370Z,6.60
2018-04-09T18:10:34.851Z,7.57
2018-04-09T18:13:03.664Z,6.47
2018-04-09T18:15:31.170Z,7.97
2018-04-09T18:17:58.760Z,6.80
2018-04-09T18:20:26.203Z,6.10
2018-04-09T18:22:53.655Z,7.47
2018-04-09T18:25:21.350Z,7.17
2018-04-09T18:27:48.796Z,5.63
2018-04-09T18:30:16.276Z,5.70
2018-04-09T18:32:43.735Z,6.37
2018-04-09T18:35:11.176Z,6.17
2018-04-09T18:37:38.666Z,6.70
2018-04-09T18:40:06.115Z,6.50
2018-04-09T18:42:33.584Z,7.40
2018-04-09T18:45:01.024Z,7.30
2018-04-09T18:47:28.495Z,7.67
2018-04-09T18:49:55.971Z,6.00
2018-04-09T18:52:23.414Z,7.50
2018-04-09T18:54:50.887Z,7.67
2018-04-09T18:57:18.339Z,9.47
2018-04-09T18:59:46.115Z,7.83
2018-04-09T19:02:13.564Z,9.20
2018-04-09T19:04:41.049Z,8.50
2018-04-09T19:07:08.557Z,7.67
2018-04-09T19:09:36.007Z,8.67
2018-04-09T19:12:03.623Z,8.83
2018-04-09T19:14:31.080Z,9.00
2018-04-09T19:16:58.551Z,9.50
2018-04-09T19:19:26.629Z,9.67
2018-04-09T19:21:54.079Z,9.23
2018-04-09T19:24:21.833Z,9.77
2018-04-09T19:26:49.287Z,9.73
2018-04-09T19:29:16.745Z,11.20
2018-04-09T19:31:44.224Z,10.63
2018-04-09T19:34:11.679Z,10.10
2018-04-09T19:36:44.695Z,10.07
2018-04-09T19:39:17.863Z,11.13
2018-04-09T19:41:45.412Z,11.87
2018-04-09T19:44:12.871Z,9.80
2018-04-09T19:55:12.498Z,10.80
2018-04-09T19:57:44.266Z,9.40
2018-04-09T20:00:13.291Z,10.53
2018-04-09T20:02:42.178Z,11.70
2018-04-09T20:05:10.564Z,11.17
2018-04-09T20:07:40.390Z,9.80
2018-04-09T20:10:10.952Z,10.63
2018-04-09T20:17:51.733Z,11.40
2018-04-09T20:20:35.996Z,9.83
2018-04-09T20:23:06.114Z,10.40
2018-04-09T20:25:39.227Z,10.97
2018-04-09T20:28:13.145Z,10.93
2018-04-09T20:30:44.286Z,11.10
2018-04-09T20:33:18.503Z,10.63
2018-04-09T20:35:49.537Z,9.70
2018-04-09T20:38:22.384Z,11.70
2018-04-09T20:40:52.972Z,9.93
2018-04-09T20:43:24.746Z,9.97
2018-04-09T20:45:55.837Z,9.10
2018-04-09T20:48:25.931Z,9.37
2018-04-09T20:50:55.644Z,10.03
2018-04-09T20:53:25.750Z,10.17
2018-04-09T20:56:01.870Z,10.63
2018-04-09T20:58:32.292Z,9.03
2018-04-09T21:01:10.841Z,9.47
2018-04-09T21:03:39.904Z,10.00
2018-04-09T21:06:08.738Z,9.17
2018-04-09T21:08:40.085Z,8.50
2018-04-09T21:11:10.255Z,8.83
2018-04-09T21:13:40.390Z,11.67
2018-04-09T21:16:12.854Z,10.53
2018-04-09T21:18:40.996Z,10.60
2018-04-09T21:21:09.771Z,9.70
2018-04-09T21:23:42.864Z,9.87
2018-04-09T21:26:11.638Z,13.03
2018-04-09T21:28:41.067Z,11.27
2018-04-09T21:31:09.338Z,12.60
2018-04-09T21:33:42.020Z,13.43
2018-04-09T21:36:10.327Z,12.60
2018-04-09T21:38:39.114Z,13.90
2018-04-09T21:41:07.667Z,16.23
2018-04-09T21:43:36.318Z,14.40
2018-04-09T21:46:05.225Z,14.37
2018-04-09T21:48:35.059Z,13.80
2018-04-09T21:51:04.322Z,14.30
2018-04-09T21:53:33.059Z,13.50
2018-04-09T21:56:02.657Z,14.97
2018-04-09T21:58:30.668Z,13.80
2018-04-09T22:00:58.651Z,13.47
2018-04-09T22:03:26.828Z,14.17
2018-04-09T22:05:56.451Z,13.40
2018-04-09T22:08:25.966Z,13.73
2018-04-09T22:10:53.846Z,12.47
2018-04-09T22:13:22.765Z,12.70
2018-04-09T22:15:50.643Z,14.57
2018-04-09T22:18:21.537Z,13.43
2018-04-09T22:20:50.077Z,13.83
2018-04-09T22:23:17.956Z,15.33
2018-04-09T22:25:45.732Z,12.60
2018-04-09T22:28:14.226Z,12.97
2018-04-09T22:30:42.744Z,14.30
2018-04-09T22:33:10.509Z,13.20
2018-04-09T22:35:38.279Z,14.27
2018-04-09T22:38:05.944Z,12.27
2018-04-09T22:40:33.580Z,12.53
2018-04-09T22:43:01.279Z,14.00
2018-04-09T22:45:28.864Z,13.33
2018-04-09T22:47:56.536Z,12.63
2018-04-09T22:50:24.331Z,12.50
2018-04-09T22:52:51.914Z,11.03
2018-04-09T22:55:19.538Z,11.93
2018-04-09T22:57:47.826Z,10.60
2018-04-09T23:00:15.416Z,11.60
2018-04-09T23:02:42.943Z,11.63
2018-04-09T23:05:11.498Z,11.67
2018-04-09T23:07:40.102Z,12.10
2018-04-09T23:10:07.664Z,11.40
2018-04-09T23:12:35.462Z,10.90
2018-04-09T23:15:03.017Z,11.50
2018-04-09T23:17:30.547Z,11.20
2018-04-09T23:19:58.152Z,12.33
2018-04-09T23:22:35.489Z,10.40
2018-04-09T23:25:03.186Z,10.30
2018-04-09T23:27:30.738Z,11.07
2018-04-09T23:29:58.271Z,11.13
2018-04-09T23:32:25.796Z,10.67
2018-04-09T23:34:53.284Z,11.40
2018-04-09T23:37:20.764Z,10.40
2018-04-09T23:39:48.453Z,10.57
2018-04-09T23:42:15.937Z,10.77
2018-04-09T23:44:43.424Z,11.40
2018-04-09T23:47:10.961Z,13.33
2018-04-09T23:49:38.452Z,11.73
2018-04-09T23:52:05.993Z,11.63
2018-04-09T23:54:33.480Z,12.57
2018-04-09T23:57:00.996Z,11.83
2018-04-09T23:59:28.516Z,12.30
